Hellas Glory — 9HWN9 — position and weather

sailwx.info

Track history (hours):
 
Tides and Currents Weather Stations Pressure Air Temp Water Temp Dewpoint Dewpoint Depression Visibility Wind Speed Wind Dir Waves Ship Positions

Hellas Glory

Last reported at 2016-Jun-22 19:04 UTC. Time now 2016-Jun-25 16:04 UTC.
Position S 34°00' E 017°50'.

Length 225 m; draft 7.8 m.

Type: Tanker. MMSI: 249636000.

Date/timePositionNaut miles runAvg speedWind from/ knotsBaromVisibWave heightAir tempDewpointWater temp
2016-Jun-22 19:04S 34°00' E 017°50'2315.0
2016-Jun-22 17:31S 34°20' E 018°06'1515.2
2016-Jun-22 16:32S 34°32' E 018°16'1414.5
2016-Jun-22 15:34S 34°39' E 018°31'  
2016-Jun-20 02:09S 32°06' E 032°25'813.7
2016-Jun-20 01:33S 32°03' E 032°34'1312.7
2016-Jun-20 00:33S 31°58' E 032°47'1312.6
2016-Jun-19 23:33S 31°53' E 033°01'1313.3
2016-Jun-19 22:33S 31°48' E 033°15'1313.1
2016-Jun-19 21:33S 31°42' E 033°30'1312.7
2016-Jun-19 20:33S 31°37' E 033°43'1413.6
2016-Jun-19 19:34S 31°32' E 033°58'1413.5
2016-Jun-19 18:33S 31°26' E 034°12'  
Track history (hours):
 
Tides and Currents Weather Stations Pressure Air Temp Water Temp Dewpoint Dewpoint Depression Visibility Wind Speed Wind Dir Waves Ship Positions

Hellas Glory

Last reported at 2016-Jun-22 19:04 UTC. Time now 2016-Jun-25 16:04 UTC.
Position S 34°00' E 017°50'.

Length 225 m; draft 7.8 m.

Type: Tanker. MMSI: 249636000.

Date/timePositionNaut miles runAvg speedWind from/ knotsBaromVisibWave heightAir tempDewpointWater temp
2016-Jun-22 19:04S 34°00' E 017°50'2315.0
2016-Jun-22 17:31S 34°20' E 018°06'1515.2
2016-Jun-22 16:32S 34°32' E 018°16'1414.5
2016-Jun-22 15:34S 34°39' E 018°31'  
2016-Jun-20 02:09S 32°06' E 032°25'813.7
2016-Jun-20 01:33S 32°03' E 032°34'1312.7
2016-Jun-20 00:33S 31°58' E 032°47'1312.6
2016-Jun-19 23:33S 31°53' E 033°01'1313.3
2016-Jun-19 22:33S 31°48' E 033°15'1313.1
2016-Jun-19 21:33S 31°42' E 033°30'1312.7
2016-Jun-19 20:33S 31°37' E 033°43'1413.6
2016-Jun-19 19:34S 31°32' E 033°58'1413.5
2016-Jun-19 18:33S 31°26' E 034°12'  

Dump ship's entire track history